sensor_id;sensor_type;location;lat;lon;timestamp;P1;durP1;ratioP1;P2;durP2;ratioP2
769;SDS011;368;48.698;9.116;2023-04-25T00:00:17;3.73;;;3.27;;
769;SDS011;368;48.698;9.116;2023-04-25T00:02:43;3.77;;;3.30;;
769;SDS011;368;48.698;9.116;2023-04-25T00:05:11;3.30;;;3.10;;
769;SDS011;368;48.698;9.116;2023-04-25T00:07:41;3.80;;;3.50;;
769;SDS011;368;48.698;9.116;2023-04-25T00:10:08;3.50;;;3.20;;
769;SDS011;368;48.698;9.116;2023-04-25T00:12:37;3.73;;;3.33;;
769;SDS011;368;48.698;9.116;2023-04-25T00:15:04;4.20;;;3.80;;
769;SDS011;368;48.698;9.116;2023-04-25T00:17:31;3.60;;;3.20;;
769;SDS011;368;48.698;9.116;2023-04-25T00:19:59;5.63;;;3.60;;
769;SDS011;368;48.698;9.116;2023-04-25T00:22:30;4.03;;;3.73;;
769;SDS011;368;48.698;9.116;2023-04-25T00:24:58;2.90;;;2.60;;
769;SDS011;368;48.698;9.116;2023-04-25T00:27:25;3.17;;;2.70;;
769;SDS011;368;48.698;9.116;2023-04-25T00:29:52;4.53;;;2.50;;
769;SDS011;368;48.698;9.116;2023-04-25T00:32:19;3.07;;;2.87;;
769;SDS011;368;48.698;9.116;2023-04-25T00:34:46;2.60;;;2.40;;
769;SDS011;368;48.698;9.116;2023-04-25T00:37:12;4.00;;;3.10;;
769;SDS011;368;48.698;9.116;2023-04-25T00:39:39;3.10;;;2.90;;
769;SDS011;368;48.698;9.116;2023-04-25T00:42:07;2.93;;;2.73;;
769;SDS011;368;48.698;9.116;2023-04-25T00:44:34;4.23;;;3.30;;
769;SDS011;368;48.698;9.116;2023-04-25T00:47:02;3.27;;;3.07;;
769;SDS011;368;48.698;9.116;2023-04-25T00:49:29;3.10;;;2.90;;
769;SDS011;368;48.698;9.116;2023-04-25T00:51:56;5.07;;;4.17;;
769;SDS011;368;48.698;9.116;2023-04-25T00:54:23;3.77;;;3.00;;
769;SDS011;368;48.698;9.116;2023-04-25T00:56:50;3.17;;;2.80;;
769;SDS011;368;48.698;9.116;2023-04-25T00:59:19;3.20;;;2.90;;
769;SDS011;368;48.698;9.116;2023-04-25T01:01:47;3.57;;;3.27;;
769;SDS011;368;48.698;9.116;2023-04-25T01:04:13;2.80;;;2.60;;
769;SDS011;368;48.698;9.116;2023-04-25T01:06:40;3.10;;;2.73;;
769;SDS011;368;48.698;9.116;2023-04-25T01:09:07;2.97;;;2.67;;
769;SDS011;368;48.698;9.116;2023-04-25T01:11:34;3.10;;;2.80;;
769;SDS011;368;48.698;9.116;2023-04-25T01:14:01;2.80;;;2.57;;
769;SDS011;368;48.698;9.116;2023-04-25T01:16:29;5.20;;;4.80;;
769;SDS011;368;48.698;9.116;2023-04-25T01:18:57;3.93;;;3.20;;
769;SDS011;368;48.698;9.116;2023-04-25T01:21:25;4.20;;;2.70;;
769;SDS011;368;48.698;9.116;2023-04-25T01:23:54;3.63;;;2.63;;
769;SDS011;368;48.698;9.116;2023-04-25T01:26:21;3.00;;;2.80;;
769;SDS011;368;48.698;9.116;2023-04-25T01:28:49;3.20;;;2.90;;
769;SDS011;368;48.698;9.116;2023-04-25T01:31:16;5.13;;;4.00;;
769;SDS011;368;48.698;9.116;2023-04-25T01:33:44;5.50;;;3.63;;
769;SDS011;368;48.698;9.116;2023-04-25T01:36:12;5.10;;;4.30;;
769;SDS011;368;48.698;9.116;2023-04-25T01:38:42;4.53;;;4.10;;
769;SDS011;368;48.698;9.116;2023-04-25T01:41:09;4.30;;;3.90;;
769;SDS011;368;48.698;9.116;2023-04-25T01:43:36;4.47;;;4.03;;
769;SDS011;368;48.698;9.116;2023-04-25T01:46:02;4.00;;;3.67;;
769;SDS011;368;48.698;9.116;2023-04-25T01:48:30;5.13;;;3.93;;
769;SDS011;368;48.698;9.116;2023-04-25T01:50:56;5.37;;;3.97;;
769;SDS011;368;48.698;9.116;2023-04-25T01:53:24;5.77;;;4.10;;
769;SDS011;368;48.698;9.116;2023-04-25T01:55:52;4.27;;;3.60;;
769;SDS011;368;48.698;9.116;2023-04-25T01:58:19;4.83;;;4.00;;
769;SDS011;368;48.698;9.116;2023-04-25T02:00:46;4.10;;;3.70;;
769;SDS011;368;48.698;9.116;2023-04-25T02:03:13;4.90;;;3.07;;
769;SDS011;368;48.698;9.116;2023-04-25T02:05:40;4.23;;;3.83;;
769;SDS011;368;48.698;9.116;2023-04-25T02:08:07;3.63;;;3.30;;
769;SDS011;368;48.698;9.116;2023-04-25T02:10:34;4.30;;;3.90;;
769;SDS011;368;48.698;9.116;2023-04-25T02:13:03;4.53;;;3.67;;
769;SDS011;368;48.698;9.116;2023-04-25T02:15:30;3.67;;;3.03;;
769;SDS011;368;48.698;9.116;2023-04-25T02:17:57;3.63;;;3.33;;
769;SDS011;368;48.698;9.116;2023-04-25T02:20:25;3.20;;;2.90;;
769;SDS011;368;48.698;9.116;2023-04-25T02:22:52;4.53;;;3.20;;
769;SDS011;368;48.698;9.116;2023-04-25T02:25:19;4.23;;;3.47;;
769;SDS011;368;48.698;9.116;2023-04-25T02:27:46;4.60;;;2.97;;
769;SDS011;368;48.698;9.116;2023-04-25T02:30:15;3.40;;;3.10;;
769;SDS011;368;48.698;9.116;2023-04-25T02:32:41;3.30;;;3.10;;
769;SDS011;368;48.698;9.116;2023-04-25T02:35:08;2.73;;;2.50;;
769;SDS011;368;48.698;9.116;2023-04-25T02:37:36;5.43;;;3.93;;
769;SDS011;368;48.698;9.116;2023-04-25T02:40:05;3.80;;;3.30;;
769;SDS011;368;48.698;9.116;2023-04-25T02:42:33;3.50;;;3.20;;
769;SDS011;368;48.698;9.116;2023-04-25T02:44:59;3.40;;;3.10;;
769;SDS011;368;48.698;9.116;2023-04-25T02:47:28;4.07;;;3.10;;
769;SDS011;368;48.698;9.116;2023-04-25T02:49:55;3.70;;;3.40;;
769;SDS011;368;48.698;9.116;2023-04-25T02:52:21;3.10;;;2.90;;
769;SDS011;368;48.698;9.116;2023-04-25T02:54:48;3.43;;;2.90;;
769;SDS011;368;48.698;9.116;2023-04-25T02:57:15;3.23;;;3.03;;
769;SDS011;368;48.698;9.116;2023-04-25T02:59:42;3.53;;;3.23;;
769;SDS011;368;48.698;9.116;2023-04-25T03:02:09;3.77;;;3.37;;
769;SDS011;368;48.698;9.116;2023-04-25T03:04:37;4.97;;;3.20;;
769;SDS011;368;48.698;9.116;2023-04-25T03:07:04;5.13;;;3.23;;
769;SDS011;368;48.698;9.116;2023-04-25T03:09:31;4.27;;;3.87;;
769;SDS011;368;48.698;9.116;2023-04-25T03:11:58;4.47;;;4.07;;
769;SDS011;368;48.698;9.116;2023-04-25T03:14:25;4.87;;;4.03;;
769;SDS011;368;48.698;9.116;2023-04-25T03:16:52;5.97;;;3.30;;
769;SDS011;368;48.698;9.116;2023-04-25T03:19:18;3.80;;;3.50;;
769;SDS011;368;48.698;9.116;2023-04-25T03:21:47;3.80;;;3.47;;
769;SDS011;368;48.698;9.116;2023-04-25T03:24:13;4.43;;;3.93;;
769;SDS011;368;48.698;9.116;2023-04-25T03:26:41;5.13;;;3.33;;
769;SDS011;368;48.698;9.116;2023-04-25T03:29:08;4.60;;;3.23;;
769;SDS011;368;48.698;9.116;2023-04-25T03:31:35;3.37;;;3.03;;
769;SDS011;368;48.698;9.116;2023-04-25T03:34:02;3.77;;;3.40;;
769;SDS011;368;48.698;9.116;2023-04-25T03:36:29;4.13;;;3.53;;
769;SDS011;368;48.698;9.116;2023-04-25T03:38:57;3.80;;;3.50;;
769;SDS011;368;48.698;9.116;2023-04-25T03:41:24;3.50;;;3.20;;
769;SDS011;368;48.698;9.116;2023-04-25T03:43:51;4.10;;;3.80;;
769;SDS011;368;48.698;9.116;2023-04-25T03:46:17;3.93;;;3.53;;
769;SDS011;368;48.698;9.116;2023-04-25T03:48:44;3.83;;;3.43;;
769;SDS011;368;48.698;9.116;2023-04-25T03:51:11;4.10;;;3.33;;
769;SDS011;368;48.698;9.116;2023-04-25T03:53:38;4.07;;;3.30;;
769;SDS011;368;48.698;9.116;2023-04-25T03:56:06;3.70;;;3.30;;
769;SDS011;368;48.698;9.116;2023-04-25T03:58:33;4.43;;;3.70;;
769;SDS011;368;48.698;9.116;2023-04-25T04:00:59;4.13;;;3.83;;
769;SDS011;368;48.698;9.116;2023-04-25T04:03:28;4.17;;;3.77;;
769;SDS011;368;48.698;9.116;2023-04-25T04:05:54;4.37;;;3.97;;
769;SDS011;368;48.698;9.116;2023-04-25T04:08:21;6.23;;;3.73;;
769;SDS011;368;48.698;9.116;2023-04-25T04:10:48;4.63;;;4.07;;
769;SDS011;368;48.698;9.116;2023-04-25T04:13:16;4.53;;;3.90;;
769;SDS011;368;48.698;9.116;2023-04-25T04:15:43;6.53;;;5.20;;
769;SDS011;368;48.698;9.116;2023-04-25T04:18:10;12.80;;;10.00;;
769;SDS011;368;48.698;9.116;2023-04-25T04:20:36;11.97;;;10.57;;
769;SDS011;368;48.698;9.116;2023-04-25T04:23:03;8.53;;;7.47;;
769;SDS011;368;48.698;9.116;2023-04-25T04:25:30;8.80;;;7.90;;
769;SDS011;368;48.698;9.116;2023-04-25T04:27:57;7.83;;;7.03;;
769;SDS011;368;48.698;9.116;2023-04-25T04:30:25;7.77;;;6.73;;
769;SDS011;368;48.698;9.116;2023-04-25T04:32:54;8.27;;;6.30;;
769;SDS011;368;48.698;9.116;2023-04-25T04:35:21;8.80;;;7.87;;
769;SDS011;368;48.698;9.116;2023-04-25T04:37:48;7.23;;;6.30;;
769;SDS011;368;48.698;9.116;2023-04-25T04:40:15;7.47;;;6.87;;
769;SDS011;368;48.698;9.116;2023-04-25T04:42:43;7.70;;;7.10;;
769;SDS011;368;48.698;9.116;2023-04-25T04:45:10;8.00;;;6.60;;
769;SDS011;368;48.698;9.116;2023-04-25T04:47:39;5.33;;;4.93;;
769;SDS011;368;48.698;9.116;2023-04-25T04:50:06;5.10;;;4.70;;
769;SDS011;368;48.698;9.116;2023-04-25T04:52:34;6.10;;;5.47;;
769;SDS011;368;48.698;9.116;2023-04-25T04:55:01;7.03;;;4.57;;
769;SDS011;368;48.698;9.116;2023-04-25T04:57:29;5.03;;;4.47;;
769;SDS011;368;48.698;9.116;2023-04-25T04:59:58;6.10;;;4.73;;
769;SDS011;368;48.698;9.116;2023-04-25T05:02:25;10.33;;;6.60;;
769;SDS011;368;48.698;9.116;2023-04-25T05:04:55;4.73;;;4.33;;
769;SDS011;368;48.698;9.116;2023-04-25T05:07:22;5.53;;;5.03;;
769;SDS011;368;48.698;9.116;2023-04-25T05:09:49;4.83;;;4.33;;
769;SDS011;368;48.698;9.116;2023-04-25T05:12:16;4.77;;;3.83;;
769;SDS011;368;48.698;9.116;2023-04-25T05:14:43;4.50;;;4.10;;
769;SDS011;368;48.698;9.116;2023-04-25T05:17:10;4.17;;;3.77;;
769;SDS011;368;48.698;9.116;2023-04-25T05:19:37;4.40;;;4.00;;
769;SDS011;368;48.698;9.116;2023-04-25T05:22:05;5.40;;;4.87;;
769;SDS011;368;48.698;9.116;2023-04-25T05:24:32;5.50;;;5.00;;
769;SDS011;368;48.698;9.116;2023-04-25T05:26:59;4.90;;;4.40;;
769;SDS011;368;48.698;9.116;2023-04-25T05:29:26;5.23;;;4.10;;
769;SDS011;368;48.698;9.116;2023-04-25T05:31:52;5.17;;;4.70;;
769;SDS011;368;48.698;9.116;2023-04-25T05:34:19;4.50;;;4.10;;
769;SDS011;368;48.698;9.116;2023-04-25T05:36:46;4.87;;;4.10;;
769;SDS011;368;48.698;9.116;2023-04-25T05:39:15;5.03;;;4.00;;
769;SDS011;368;48.698;9.116;2023-04-25T05:41:42;5.37;;;4.60;;
769;SDS011;368;48.698;9.116;2023-04-25T05:44:09;5.23;;;4.73;;
769;SDS011;368;48.698;9.116;2023-04-25T05:46:36;5.60;;;4.80;;
769;SDS011;368;48.698;9.116;2023-04-25T05:49:03;5.67;;;4.50;;
769;SDS011;368;48.698;9.116;2023-04-25T05:51:30;9.03;;;5.30;;
769;SDS011;368;48.698;9.116;2023-04-25T05:53:57;4.53;;;4.10;;
769;SDS011;368;48.698;9.116;2023-04-25T05:56:25;6.00;;;5.40;;
769;SDS011;368;48.698;9.116;2023-04-25T05:58:52;5.70;;;4.83;;
769;SDS011;368;48.698;9.116;2023-04-25T06:01:21;7.57;;;5.20;;
769;SDS011;368;48.698;9.116;2023-04-25T06:03:48;5.23;;;4.77;;
769;SDS011;368;48.698;9.116;2023-04-25T06:06:16;4.93;;;4.50;;
769;SDS011;368;48.698;9.116;2023-04-25T06:08:43;6.27;;;5.13;;
769;SDS011;368;48.698;9.116;2023-04-25T06:11:10;5.90;;;4.33;;
769;SDS011;368;48.698;9.116;2023-04-25T06:13:38;5.20;;;4.70;;
769;SDS011;368;48.698;9.116;2023-04-25T06:16:05;4.90;;;4.50;;
769;SDS011;368;48.698;9.116;2023-04-25T06:18:32;6.50;;;4.20;;
769;SDS011;368;48.698;9.116;2023-04-25T06:20:59;4.50;;;4.10;;
769;SDS011;368;48.698;9.116;2023-04-25T06:23:26;5.00;;;4.50;;
769;SDS011;368;48.698;9.116;2023-04-25T06:25:53;4.63;;;3.90;;
769;SDS011;368;48.698;9.116;2023-04-25T06:28:19;5.20;;;4.13;;
769;SDS011;368;48.698;9.116;2023-04-25T06:30:49;4.77;;;4.30;;
769;SDS011;368;48.698;9.116;2023-04-25T06:33:16;6.20;;;4.57;;
769;SDS011;368;48.698;9.116;2023-04-25T06:35:43;6.27;;;4.13;;
769;SDS011;368;48.698;9.116;2023-04-25T06:38:10;6.27;;;4.63;;
769;SDS011;368;48.698;9.116;2023-04-25T06:40:37;4.63;;;4.23;;
769;SDS011;368;48.698;9.116;2023-04-25T06:43:04;5.13;;;4.33;;
769;SDS011;368;48.698;9.116;2023-04-25T06:45:31;5.27;;;4.67;;
769;SDS011;368;48.698;9.116;2023-04-25T06:47:59;6.73;;;6.13;;
769;SDS011;368;48.698;9.116;2023-04-25T06:50:26;6.00;;;5.50;;
769;SDS011;368;48.698;9.116;2023-04-25T06:52:52;6.33;;;5.77;;
769;SDS011;368;48.698;9.116;2023-04-25T06:55:19;6.90;;;6.00;;
769;SDS011;368;48.698;9.116;2023-04-25T06:57:46;5.53;;;5.03;;
769;SDS011;368;48.698;9.116;2023-04-25T07:00:13;6.87;;;4.97;;
769;SDS011;368;48.698;9.116;2023-04-25T07:02:41;5.63;;;5.23;;
769;SDS011;368;48.698;9.116;2023-04-25T07:05:10;6.73;;;5.10;;
769;SDS011;368;48.698;9.116;2023-04-25T07:07:36;5.03;;;4.53;;
769;SDS011;368;48.698;9.116;2023-04-25T07:10:03;4.77;;;4.37;;
769;SDS011;368;48.698;9.116;2023-04-25T07:12:31;4.30;;;3.80;;
769;SDS011;368;48.698;9.116;2023-04-25T07:14:58;5.00;;;4.53;;
769;SDS011;368;48.698;9.116;2023-04-25T07:17:30;5.23;;;4.63;;
769;SDS011;368;48.698;9.116;2023-04-25T07:19:57;4.57;;;4.17;;
769;SDS011;368;48.698;9.116;2023-04-25T07:22:26;3.60;;;3.37;;
769;SDS011;368;48.698;9.116;2023-04-25T07:24:52;6.57;;;4.20;;
769;SDS011;368;48.698;9.116;2023-04-25T07:27:19;4.60;;;4.20;;
769;SDS011;368;48.698;9.116;2023-04-25T07:29:46;4.87;;;4.30;;
769;SDS011;368;48.698;9.116;2023-04-25T07:32:13;5.17;;;4.40;;
769;SDS011;368;48.698;9.116;2023-04-25T07:34:40;3.87;;;3.57;;
769;SDS011;368;48.698;9.116;2023-04-25T07:37:07;4.73;;;4.33;;
769;SDS011;368;48.698;9.116;2023-04-25T07:39:35;4.17;;;3.77;;
769;SDS011;368;48.698;9.116;2023-04-25T07:42:02;4.93;;;4.10;;
769;SDS011;368;48.698;9.116;2023-04-25T07:44:31;5.00;;;4.50;;
769;SDS011;368;48.698;9.116;2023-04-25T07:47:03;5.10;;;4.60;;
769;SDS011;368;48.698;9.116;2023-04-25T07:49:30;6.90;;;5.53;;
769;SDS011;368;48.698;9.116;2023-04-25T07:51:57;15.20;;;11.17;;
769;SDS011;368;48.698;9.116;2023-04-25T07:54:24;8.67;;;7.60;;
769;SDS011;368;48.698;9.116;2023-04-25T07:56:52;5.57;;;4.97;;
769;SDS011;368;48.698;9.116;2023-04-25T07:59:19;7.23;;;5.17;;
769;SDS011;368;48.698;9.116;2023-04-25T08:01:46;7.00;;;4.77;;
769;SDS011;368;48.698;9.116;2023-04-25T08:04:14;5.80;;;5.00;;
769;SDS011;368;48.698;9.116;2023-04-25T08:06:41;6.00;;;5.40;;
769;SDS011;368;48.698;9.116;2023-04-25T08:09:08;10.00;;;6.03;;
769;SDS011;368;48.698;9.116;2023-04-25T08:11:36;10.00;;;7.80;;
769;SDS011;368;48.698;9.116;2023-04-25T08:14:04;7.13;;;5.43;;
769;SDS011;368;48.698;9.116;2023-04-25T08:16:31;7.60;;;4.87;;
769;SDS011;368;48.698;9.116;2023-04-25T08:18:58;6.43;;;5.80;;
769;SDS011;368;48.698;9.116;2023-04-25T08:21:26;7.50;;;6.07;;
769;SDS011;368;48.698;9.116;2023-04-25T08:23:52;7.20;;;6.57;;
769;SDS011;368;48.698;9.116;2023-04-25T08:26:19;5.80;;;5.30;;
769;SDS011;368;48.698;9.116;2023-04-25T08:28:46;6.30;;;5.80;;
769;SDS011;368;48.698;9.116;2023-04-25T08:31:14;6.77;;;5.60;;
769;SDS011;368;48.698;9.116;2023-04-25T08:33:41;5.80;;;5.20;;
769;SDS011;368;48.698;9.116;2023-04-25T08:36:08;8.80;;;5.37;;
769;SDS011;368;48.698;9.116;2023-04-25T08:38:35;7.50;;;6.30;;
769;SDS011;368;48.698;9.116;2023-04-25T08:41:02;7.80;;;5.60;;
769;SDS011;368;48.698;9.116;2023-04-25T08:43:31;7.40;;;6.70;;
769;SDS011;368;48.698;9.116;2023-04-25T08:45:59;7.70;;;5.23;;
769;SDS011;368;48.698;9.116;2023-04-25T08:48:28;7.17;;;5.73;;
769;SDS011;368;48.698;9.116;2023-04-25T08:50:55;6.70;;;6.10;;
769;SDS011;368;48.698;9.116;2023-04-25T08:53:25;7.13;;;6.20;;
769;SDS011;368;48.698;9.116;2023-04-25T08:55:54;7.60;;;6.83;;
769;SDS011;368;48.698;9.116;2023-04-25T08:58:22;6.70;;;6.03;;
769;SDS011;368;48.698;9.116;2023-04-25T09:00:50;6.73;;;6.13;;
769;SDS011;368;48.698;9.116;2023-04-25T09:03:17;7.10;;;6.03;;
769;SDS011;368;48.698;9.116;2023-04-25T09:05:46;6.77;;;6.07;;
769;SDS011;368;48.698;9.116;2023-04-25T09:08:13;6.40;;;5.80;;
769;SDS011;368;48.698;9.116;2023-04-25T09:10:40;6.17;;;5.33;;
769;SDS011;368;48.698;9.116;2023-04-25T09:13:07;6.37;;;5.63;;
769;SDS011;368;48.698;9.116;2023-04-25T09:15:46;7.67;;;6.87;;
769;SDS011;368;48.698;9.116;2023-04-25T09:18:21;7.23;;;6.37;;
769;SDS011;368;48.698;9.116;2023-04-25T09:20:50;7.63;;;6.37;;
769;SDS011;368;48.698;9.116;2023-04-25T09:23:18;6.90;;;5.90;;
769;SDS011;368;48.698;9.116;2023-04-25T09:25:46;6.77;;;6.10;;
769;SDS011;368;48.698;9.116;2023-04-25T09:28:14;7.53;;;6.83;;
769;SDS011;368;48.698;9.116;2023-04-25T09:30:41;6.90;;;6.20;;
769;SDS011;368;48.698;9.116;2023-04-25T09:33:09;7.47;;;6.77;;
769;SDS011;368;48.698;9.116;2023-04-25T09:35:36;5.77;;;5.17;;
769;SDS011;368;48.698;9.116;2023-04-25T09:38:09;5.43;;;4.93;;
769;SDS011;368;48.698;9.116;2023-04-25T09:40:40;5.20;;;4.43;;
769;SDS011;368;48.698;9.116;2023-04-25T09:43:10;4.90;;;4.50;;
769;SDS011;368;48.698;9.116;2023-04-25T09:45:46;5.03;;;4.63;;
769;SDS011;368;48.698;9.116;2023-04-25T09:48:16;5.33;;;4.87;;
769;SDS011;368;48.698;9.116;2023-04-25T09:50:44;4.63;;;4.20;;
769;SDS011;368;48.698;9.116;2023-04-25T09:53:12;4.83;;;4.53;;
769;SDS011;368;48.698;9.116;2023-04-25T09:55:38;5.50;;;5.00;;
769;SDS011;368;48.698;9.116;2023-04-25T09:58:07;4.60;;;4.20;;
769;SDS011;368;48.698;9.116;2023-04-25T10:00:37;4.30;;;3.90;;
769;SDS011;368;48.698;9.116;2023-04-25T10:03:04;3.50;;;3.20;;
769;SDS011;368;48.698;9.116;2023-04-25T10:05:32;3.53;;;3.23;;
769;SDS011;368;48.698;9.116;2023-04-25T10:08:02;3.87;;;3.57;;
769;SDS011;368;48.698;9.116;2023-04-25T10:10:31;2.37;;;2.17;;
769;SDS011;368;48.698;9.116;2023-04-25T10:13:02;3.00;;;2.70;;
769;SDS011;368;48.698;9.116;2023-04-25T10:15:31;1.90;;;1.80;;
769;SDS011;368;48.698;9.116;2023-04-25T10:18:01;1.67;;;1.50;;
769;SDS011;368;48.698;9.116;2023-04-25T10:20:28;2.20;;;1.70;;
769;SDS011;368;48.698;9.116;2023-04-25T10:22:57;2.13;;;2.00;;
769;SDS011;368;48.698;9.116;2023-04-25T10:25:31;1.60;;;1.50;;
769;SDS011;368;48.698;9.116;2023-04-25T10:27:59;1.67;;;1.37;;
769;SDS011;368;48.698;9.116;2023-04-25T10:30:27;2.07;;;1.30;;
769;SDS011;368;48.698;9.116;2023-04-25T10:32:54;1.70;;;1.60;;
769;SDS011;368;48.698;9.116;2023-04-25T10:35:24;1.50;;;1.40;;
769;SDS011;368;48.698;9.116;2023-04-25T10:38:02;1.23;;;1.17;;
769;SDS011;368;48.698;9.116;2023-04-25T10:40:32;1.60;;;1.50;;
769;SDS011;368;48.698;9.116;2023-04-25T10:46:01;1.50;;;1.40;;
769;SDS011;368;48.698;9.116;2023-04-25T10:48:29;1.80;;;1.70;;
769;SDS011;368;48.698;9.116;2023-04-25T10:51:08;1.30;;;1.20;;
769;SDS011;368;48.698;9.116;2023-04-25T10:53:36;1.17;;;0.87;;
769;SDS011;368;48.698;9.116;2023-04-25T10:56:10;1.30;;;1.20;;
769;SDS011;368;48.698;9.116;2023-04-25T10:58:41;1.00;;;0.83;;
769;SDS011;368;48.698;9.116;2023-04-25T11:01:08;1.23;;;1.00;;
769;SDS011;368;48.698;9.116;2023-04-25T11:03:38;0.80;;;0.80;;
769;SDS011;368;48.698;9.116;2023-04-25T11:06:07;1.20;;;0.73;;
769;SDS011;368;48.698;9.116;2023-04-25T11:08:47;1.17;;;0.87;;
769;SDS011;368;48.698;9.116;2023-04-25T11:11:17;1.33;;;0.70;;
769;SDS011;368;48.698;9.116;2023-04-25T11:13:47;1.07;;;1.00;;
769;SDS011;368;48.698;9.116;2023-04-25T11:16:14;2.50;;;2.30;;
769;SDS011;368;48.698;9.116;2023-04-25T11:18:41;23.03;;;19.10;;
769;SDS011;368;48.698;9.116;2023-04-25T11:21:09;5.20;;;4.70;;
769;SDS011;368;48.698;9.116;2023-04-25T11:23:36;1.50;;;1.40;;
769;SDS011;368;48.698;9.116;2023-04-25T11:26:02;3.60;;;3.30;;
769;SDS011;368;48.698;9.116;2023-04-25T11:28:31;2.57;;;2.47;;
769;SDS011;368;48.698;9.116;2023-04-25T11:30:58;3.00;;;2.70;;
769;SDS011;368;48.698;9.116;2023-04-25T11:33:25;3.60;;;3.30;;
769;SDS011;368;48.698;9.116;2023-04-25T11:35:53;4.03;;;3.63;;
769;SDS011;368;48.698;9.116;2023-04-25T11:38:21;3.80;;;2.90;;
769;SDS011;368;48.698;9.116;2023-04-25T11:40:51;3.60;;;3.07;;
769;SDS011;368;48.698;9.116;2023-04-25T11:43:19;3.40;;;3.10;;
769;SDS011;368;48.698;9.116;2023-04-25T11:45:49;3.20;;;2.90;;
769;SDS011;368;48.698;9.116;2023-04-25T11:48:17;4.33;;;2.70;;
769;SDS011;368;48.698;9.116;2023-04-25T11:50:45;3.50;;;3.30;;
769;SDS011;368;48.698;9.116;2023-04-25T11:53:12;2.93;;;2.73;;
769;SDS011;368;48.698;9.116;2023-04-25T11:55:39;2.30;;;2.10;;
769;SDS011;368;48.698;9.116;2023-04-25T11:58:07;6.63;;;3.17;;
769;SDS011;368;48.698;9.116;2023-04-25T12:00:34;2.17;;;2.07;;
769;SDS011;368;48.698;9.116;2023-04-25T12:03:02;2.53;;;2.33;;
769;SDS011;368;48.698;9.116;2023-04-25T12:05:31;3.03;;;2.17;;
769;SDS011;368;48.698;9.116;2023-04-25T12:07:58;2.80;;;2.60;;
769;SDS011;368;48.698;9.116;2023-04-25T12:10:37;3.40;;;3.10;;
769;SDS011;368;48.698;9.116;2023-04-25T12:13:17;2.60;;;2.40;;
769;SDS011;368;48.698;9.116;2023-04-25T12:15:45;2.90;;;2.70;;
769;SDS011;368;48.698;9.116;2023-04-25T12:18:13;3.53;;;3.20;;
769;SDS011;368;48.698;9.116;2023-04-25T12:20:41;4.50;;;4.23;;
769;SDS011;368;48.698;9.116;2023-04-25T12:23:08;3.33;;;3.00;;
769;SDS011;368;48.698;9.116;2023-04-25T12:25:36;3.47;;;3.10;;
769;SDS011;368;48.698;9.116;2023-04-25T12:28:11;3.90;;;3.50;;
769;SDS011;368;48.698;9.116;2023-04-25T12:30:54;3.67;;;3.37;;
769;SDS011;368;48.698;9.116;2023-04-25T12:33:25;4.67;;;4.17;;
769;SDS011;368;48.698;9.116;2023-04-25T12:35:52;4.87;;;4.47;;
769;SDS011;368;48.698;9.116;2023-04-25T12:38:22;4.43;;;4.03;;
769;SDS011;368;48.698;9.116;2023-04-25T12:40:50;5.03;;;4.60;;
769;SDS011;368;48.698;9.116;2023-04-25T12:43:17;4.53;;;4.13;;
769;SDS011;368;48.698;9.116;2023-04-25T12:45:44;4.87;;;3.70;;
769;SDS011;368;48.698;9.116;2023-04-25T12:48:11;5.23;;;4.43;;
769;SDS011;368;48.698;9.116;2023-04-25T12:50:39;6.87;;;6.27;;
769;SDS011;368;48.698;9.116;2023-04-25T12:53:06;6.60;;;4.80;;
769;SDS011;368;48.698;9.116;2023-04-25T12:55:33;5.10;;;4.60;;
769;SDS011;368;48.698;9.116;2023-04-25T12:58:00;5.00;;;3.70;;
769;SDS011;368;48.698;9.116;2023-04-25T13:00:28;5.90;;;5.27;;
769;SDS011;368;48.698;9.116;2023-04-25T13:02:55;5.13;;;4.47;;
769;SDS011;368;48.698;9.116;2023-04-25T13:05:22;5.50;;;5.10;;
769;SDS011;368;48.698;9.116;2023-04-25T13:07:50;5.10;;;3.33;;
769;SDS011;368;48.698;9.116;2023-04-25T13:10:17;5.97;;;5.17;;
769;SDS011;368;48.698;9.116;2023-04-25T13:12:44;5.20;;;4.77;;
769;SDS011;368;48.698;9.116;2023-04-25T13:15:11;5.20;;;4.70;;
769;SDS011;368;48.698;9.116;2023-04-25T13:17:40;5.37;;;4.57;;
769;SDS011;368;48.698;9.116;2023-04-25T13:20:07;4.60;;;4.20;;
769;SDS011;368;48.698;9.116;2023-04-25T13:22:35;4.40;;;4.00;;
769;SDS011;368;48.698;9.116;2023-04-25T13:25:04;6.13;;;4.73;;
769;SDS011;368;48.698;9.116;2023-04-25T13:27:32;6.17;;;5.60;;
769;SDS011;368;48.698;9.116;2023-04-25T13:30:00;5.60;;;5.10;;
769;SDS011;368;48.698;9.116;2023-04-25T13:32:32;4.70;;;4.30;;
769;SDS011;368;48.698;9.116;2023-04-25T13:34:59;4.67;;;4.13;;
769;SDS011;368;48.698;9.116;2023-04-25T13:37:26;4.33;;;3.90;;
769;SDS011;368;48.698;9.116;2023-04-25T13:39:54;5.00;;;4.50;;
769;SDS011;368;48.698;9.116;2023-04-25T13:42:23;7.37;;;5.13;;
769;SDS011;368;48.698;9.116;2023-04-25T13:44:49;5.30;;;4.80;;
769;SDS011;368;48.698;9.116;2023-04-25T13:47:16;5.80;;;5.20;;
769;SDS011;368;48.698;9.116;2023-04-25T13:49:43;6.53;;;5.87;;
769;SDS011;368;48.698;9.116;2023-04-25T13:52:10;6.37;;;5.77;;
769;SDS011;368;48.698;9.116;2023-04-25T13:54:36;6.90;;;6.20;;
769;SDS011;368;48.698;9.116;2023-04-25T13:57:03;5.67;;;5.10;;
769;SDS011;368;48.698;9.116;2023-04-25T13:59:32;6.73;;;6.23;;
769;SDS011;368;48.698;9.116;2023-04-25T14:01:59;7.13;;;6.50;;
769;SDS011;368;48.698;9.116;2023-04-25T14:04:27;7.40;;;6.80;;
769;SDS011;368;48.698;9.116;2023-04-25T14:06:53;7.30;;;6.60;;
769;SDS011;368;48.698;9.116;2023-04-25T14:09:20;7.27;;;6.50;;
769;SDS011;368;48.698;9.116;2023-04-25T14:11:50;7.93;;;7.13;;
769;SDS011;368;48.698;9.116;2023-04-25T14:14:17;7.30;;;6.70;;
769;SDS011;368;48.698;9.116;2023-04-25T14:16:45;7.80;;;7.10;;
769;SDS011;368;48.698;9.116;2023-04-25T14:19:13;7.03;;;6.23;;
769;SDS011;368;48.698;9.116;2023-04-25T14:21:40;10.50;;;6.50;;
769;SDS011;368;48.698;9.116;2023-04-25T14:24:06;6.50;;;5.90;;
769;SDS011;368;48.698;9.116;2023-04-25T14:26:34;7.70;;;7.00;;
769;SDS011;368;48.698;9.116;2023-04-25T14:29:01;6.83;;;6.07;;
769;SDS011;368;48.698;9.116;2023-04-25T14:31:30;7.57;;;6.87;;
769;SDS011;368;48.698;9.116;2023-04-25T14:33:58;8.80;;;6.20;;
769;SDS011;368;48.698;9.116;2023-04-25T14:36:25;6.53;;;5.93;;
769;SDS011;368;48.698;9.116;2023-04-25T14:38:52;7.47;;;5.83;;
769;SDS011;368;48.698;9.116;2023-04-25T14:41:19;5.23;;;4.73;;
769;SDS011;368;48.698;9.116;2023-04-25T14:43:46;5.90;;;5.33;;
769;SDS011;368;48.698;9.116;2023-04-25T14:46:13;6.90;;;5.37;;
769;SDS011;368;48.698;9.116;2023-04-25T14:48:40;5.13;;;4.67;;
769;SDS011;368;48.698;9.116;2023-04-25T14:51:08;5.73;;;4.50;;
769;SDS011;368;48.698;9.116;2023-04-25T14:53:35;6.17;;;4.67;;
769;SDS011;368;48.698;9.116;2023-04-25T14:56:02;5.30;;;4.90;;
769;SDS011;368;48.698;9.116;2023-04-25T14:58:30;5.13;;;4.63;;
769;SDS011;368;48.698;9.116;2023-04-25T15:00:57;5.43;;;4.40;;
769;SDS011;368;48.698;9.116;2023-04-25T15:03:24;4.80;;;4.40;;
769;SDS011;368;48.698;9.116;2023-04-25T15:05:51;4.60;;;4.20;;
769;SDS011;368;48.698;9.116;2023-04-25T15:08:20;4.53;;;4.13;;
769;SDS011;368;48.698;9.116;2023-04-25T15:10:47;4.60;;;4.20;;
769;SDS011;368;48.698;9.116;2023-04-25T15:13:14;4.93;;;4.43;;
769;SDS011;368;48.698;9.116;2023-04-25T15:15:41;5.33;;;4.93;;
769;SDS011;368;48.698;9.116;2023-04-25T15:18:08;4.63;;;4.03;;
769;SDS011;368;48.698;9.116;2023-04-25T15:20:35;3.77;;;3.47;;
769;SDS011;368;48.698;9.116;2023-04-25T15:23:02;5.07;;;4.53;;
769;SDS011;368;48.698;9.116;2023-04-25T15:25:31;4.77;;;4.03;;
769;SDS011;368;48.698;9.116;2023-04-25T15:27:58;4.73;;;4.07;;
769;SDS011;368;48.698;9.116;2023-04-25T15:30:25;3.60;;;3.30;;
769;SDS011;368;48.698;9.116;2023-04-25T15:32:51;5.23;;;4.10;;
769;SDS011;368;48.698;9.116;2023-04-25T15:35:18;3.70;;;3.40;;
769;SDS011;368;48.698;9.116;2023-04-25T15:37:45;2.93;;;2.73;;
769;SDS011;368;48.698;9.116;2023-04-25T15:40:13;3.10;;;2.80;;
769;SDS011;368;48.698;9.116;2023-04-25T15:42:43;4.37;;;3.97;;
769;SDS011;368;48.698;9.116;2023-04-25T15:45:12;3.23;;;3.00;;
769;SDS011;368;48.698;9.116;2023-04-25T15:47:41;3.93;;;3.50;;
769;SDS011;368;48.698;9.116;2023-04-25T15:50:09;4.00;;;3.63;;